Cervantes, Argentina
Current Conditions -  °F | °C
As of 8:00 PM on Friday 28 Nov 2014 (Local Time) from SAZN Reporting Station
Clear Clear  
Wind Chill: 25°   Ceiling: Unl
Heat Index: 25°   Visibility: 6mi
Dew Point:   Wind: 8mph
Humidity: 19%   Direction: 230°SW
Pressure: 29.68"   Gusts: NA
Location:  39.06°S, 67.34°W
Report Text: SAZN 282300Z 23007KT CAVOK 25/00 Q1005
Loading
Personal Weather Stations






























Interactive Weather Map New forecast layout! Learn more

10-Day Weather Forecast

Advertisements
Track Severe Weather on mobile